»·PEaware :: SKY103 KHLN-KLVM

SKY103 :: KHLN-KLVM

FLIGHT INFORMATION

Flight Status: Arrived
Operator:
Sky High Charters
More flights by this operator :: More flights under this callsign
Pilot: Andrew C. (28419)
Aircraft: SOCATA TBM-900
(TBM9)
More flights by this aircraft type
Origin: KHLN Helena Regl
United States
Destination: KLVM Mission
United States
More flights between these airports :: More routes between these airports
Route: STAKK4 BZN ZUBLI LVM
File this flight plan on PilotEdge
Remarks:
Altitude:
(Current/Filed)
13,000ft
Speed:
(Current/Filed)
280kts
Departed: 25-Oct-20 03:39 PM
Arrived: 25-Oct-20 04:16 PM
Distance/Time
Traveled:
84nm/0:37
Distance/Time
To Go:
Arrived

Flight Plot

Page will automatically refresh every two minutes.

Flight plan parsing failed; only flown route is shown


Map Options




Map Legend


Flown Route
Filed Route
Departure Airport
Arrival Airport
Navaid (VOR, NDB)
Fix

Horizontal Profiles

Position Reports

Time Latitude Longitude Heading Altitude Ground
Speed
25-Oct-20 15:23 46.602539 -111.984718 357 3866ft 0kts
25-Oct-20 15:24 46.602539 -111.984718 357 3866ft 0kts
25-Oct-20 15:25 46.602539 -111.984718 357 3866ft 0kts
25-Oct-20 15:26 46.602539 -111.984718 357 3866ft 0kts
25-Oct-20 15:27 46.602539 -111.984718 357 3866ft 0kts
25-Oct-20 15:28 46.602539 -111.984718 357 3866ft 0kts
25-Oct-20 15:29 46.602539 -111.984718 357 3866ft 0kts
25-Oct-20 15:30 46.602539 -111.984718 357 3866ft 0kts
25-Oct-20 15:31 46.602539 -111.984718 357 3866ft 0kts
25-Oct-20 15:32 46.602539 -111.984718 357 3866ft 0kts
25-Oct-20 15:33 46.602965 -111.984753 356 3864ft 8kts
25-Oct-20 15:34 46.603664 -111.979675 90 3863ft 10kts
25-Oct-20 15:35 46.603353 -111.975415 97 3861ft 17kts
25-Oct-20 15:36 46.602406 -111.967116 102 3852ft 19kts
25-Oct-20 15:37 46.602151 -111.963293 38 3846ft 5kts
25-Oct-20 15:38 46.607294 -111.989891 284 4324ft 140kts
25-Oct-20 15:39 46.631812 -111.997111 80 6679ft 132kts
25-Oct-20 15:40 46.609459 -111.956853 132 8910ft 142kts
25-Oct-20 15:41 46.595759 -111.884479 100 10173ft 185kts
25-Oct-20 15:42 46.585078 -111.817628 97 12170ft 169kts
25-Oct-20 15:43 46.573912 -111.747681 97 13027ft 220kts
25-Oct-20 15:44 46.558812 -111.654382 98 13002ft 247kts
25-Oct-20 15:45 46.505442 -111.617477 215 12993ft 283kts
25-Oct-20 15:46 46.451892 -111.585602 85 13005ft 247kts
25-Oct-20 15:47 46.408870 -111.521344 156 12992ft 272kts
25-Oct-20 15:48 46.339096 -111.479563 153 12999ft 273kts
25-Oct-20 15:49 46.268508 -111.437961 153 12985ft 273kts
25-Oct-20 15:50 46.198135 -111.396604 153 13000ft 273kts
25-Oct-20 15:51 46.127706 -111.355325 153 13000ft 273kts
25-Oct-20 15:52 46.056080 -111.313463 153 13002ft 273kts
25-Oct-20 15:53 45.985851 -111.272529 154 13003ft 272kts
25-Oct-20 15:54 45.915560 -111.231677 154 13004ft 272kts
25-Oct-20 15:55 45.845642 -111.191153 154 13054ft 271kts
25-Oct-20 15:56 45.779418 -111.143573 116 13035ft 259kts
25-Oct-20 15:57 45.788402 -111.048168 85 13045ft 251kts
25-Oct-20 15:58 45.790244 -110.947512 85 13017ft 252kts
25-Oct-20 15:59 45.791912 -110.846498 86 12999ft 253kts
25-Oct-20 16:00 45.793517 -110.743960 86 12998ft 253kts
25-Oct-20 16:01 45.795034 -110.641031 86 12998ft 253kts
25-Oct-20 16:02 45.796445 -110.538749 86 12998ft 253kts
25-Oct-20 16:03 45.797760 -110.437485 86 12998ft 253kts
25-Oct-20 16:04 45.798937 -110.340703 87 12573ft 228kts
25-Oct-20 16:05 45.799960 -110.250256 87 11526ft 225kts
25-Oct-20 16:06 45.800858 -110.162953 89 10991ft 206kts
25-Oct-20 16:07 45.787023 -110.079280 103 9775ft 225kts
25-Oct-20 16:08 45.819977 -110.044292 307 8368ft 207kts
25-Oct-20 16:09 45.809982 -110.115160 252 8056ft 174kts
25-Oct-20 16:10 45.790372 -110.189999 242 7939ft 231kts
25-Oct-20 16:11 45.761711 -110.271806 243 7117ft 218kts
25-Oct-20 16:12 45.738966 -110.336719 242 6223ft 159kts
25-Oct-20 16:13 45.723019 -110.382150 246 5496ft 114kts
25-Oct-20 16:14 45.709713 -110.420005 246 4921ft 100kts
25-Oct-20 16:15 45.697963 -110.445784 234 4652ft 33kts
25-Oct-20 16:16 45.696194 -110.452421 328 4655ft 9kts
25-Oct-20 16:17 45.696609 -110.452357 50 4655ft 0kts
25-Oct-20 16:18 45.696609 -110.452357 50 4655ft 0kts
25-Oct-20 16:19 45.696609 -110.452357 50 4655ft 0kts
25-Oct-20 16:20 45.696609 -110.452357 50 4655ft 0kts
25-Oct-20 16:21 45.696609 -110.452357 50 4655ft 0kts
25-Oct-20 16:22 45.696609 -110.452357 50 4655ft 0kts

Navigation Log

Ident Type
Flight plan parsing failed, navigation log unavailable